Rexburg, ID

6:13 AM MDT on September 05, 2015 (GMT -0600)
ARLFRD | | Change Station
CLOSE
Current Station
Personal Weather Station
Location: Sugar City, ID
Elevation: 4895 ft
Nearby Weather Stations

Elev 4895 ft 43.90 °N, 111.74 °W | Updated 53 minutes ago

Clear
Clear
50 °F
Feels Like 48 °F
N
5
Wind Variable Wind from SW
Gusts 8.0 mph

Today
High -- | Low -- °F
--% Chance of Precip.
Yesterday
High -- | Low -- °F
Precip. -- in
6:54 AM 7:55 PM
Waning Gibbous, 49% visible
Pressure 29.80 in
Visibility 10.0 miles
Clouds Clear
Windchill 48 °F
Dew Point 37 °F
Humidity 60%
Rainfall in
Snow Depth Not available.
UV 0 out of 12
Pollen 8.80 out of 12
Air Quality Not available.
Flu Activity Not available.
METAR KRXE 051153Z AUTO 21014G23KT 10SM CLR 09/03 A2990 RMK AO2 SLP090 70003 T00940028 10178 20094 51023
Pressure 29.80 in
Visibility 10.0 miles
Clouds Clear
Windchill 48 °F
Dew Point 37 °F
Humidity 60%
Rainfall in
Snow Depth Not available.
UV 0 out of 12
Pollen 8.80 out of 12
Air Quality Not available.
Flu Activity Not available.
METAR KRXE 051153Z AUTO 21014G23KT 10SM CLR 09/03 A2990 RMK AO2 SLP090 70003 T00940028 10178 20094 51023

10-Day Weather Forecast

×

Almanac

Astronomy

Sep. 05, 2015 Rise Set
Actual Time
Civil Twilight
Nautical Twilight
Astronomical Twilight
Moon
Length of Visible Light
Length of Day
Tomorrow will be .
, % of the Moon is Illuminated

Today's Extremes

State Highs State Lows

Community

WunderPhotos

Upload Photos

1,852,455 photos uploaded!

WunderBlogs® & News

Nearby

Air Quality

  Air Quality AQ Index Pollutant
Not available.

Snow Depth

Station Depth Elevation

Earthquake Activity

City Distance Mag. Time & Date
Minimum magnitude displayed is 2.5.

Coastal Water Temperatures

Place Temperature

Stations

Nearby Weather Stations

Station Location Temp. Windchill Dew Point Humidity Wind Precip. Elev Updated Type